createdAt,value
2022-07-26T00:00:43.508Z,27.94
2022-07-26T00:03:10.490Z,27.93
2022-07-26T00:05:38.628Z,27.82
2022-07-26T00:08:12.956Z,27.67
2022-07-26T00:10:42.055Z,27.72
2022-07-26T00:13:09.104Z,27.74
2022-07-26T00:15:36.828Z,27.59
2022-07-26T00:18:04.895Z,27.75
2022-07-26T00:20:34.967Z,27.85
2022-07-26T00:23:02.542Z,27.75
2022-07-26T00:25:29.427Z,27.61
2022-07-26T00:27:56.779Z,27.55
2022-07-26T00:30:24.661Z,27.57
2022-07-26T00:32:52.780Z,27.44
2022-07-26T00:35:20.757Z,27.39
2022-07-26T00:37:48.064Z,27.12
2022-07-26T00:40:15.702Z,26.98
2022-07-26T00:42:43.427Z,27.03
2022-07-26T00:45:11.478Z,27.07
2022-07-26T00:47:38.558Z,26.99
2022-07-26T00:50:07.463Z,27.03
2022-07-26T00:52:35.265Z,26.92
2022-07-26T00:55:02.762Z,27.20
2022-07-26T00:57:29.515Z,27.20
2022-07-26T01:00:01.209Z,27.23
2022-07-26T01:02:28.175Z,27.27
2022-07-26T01:04:55.067Z,26.87
2022-07-26T01:07:22.733Z,26.81
2022-07-26T01:09:49.789Z,26.72
2022-07-26T01:12:16.623Z,26.67
2022-07-26T01:14:44.669Z,26.89
2022-07-26T01:17:12.493Z,26.92
2022-07-26T01:19:39.304Z,27.00
2022-07-26T01:22:09.914Z,26.87
2022-07-26T01:24:39.347Z,26.91
2022-07-26T01:27:06.308Z,26.86
2022-07-26T01:29:34.803Z,26.75
2022-07-26T01:32:05.004Z,26.49
2022-07-26T01:34:32.174Z,26.38
2022-07-26T01:36:59.019Z,26.55
2022-07-26T01:39:25.808Z,26.88
2022-07-26T01:41:53.335Z,26.78
2022-07-26T01:44:20.028Z,26.96
2022-07-26T01:46:46.693Z,27.13
2022-07-26T01:49:13.652Z,27.22
2022-07-26T01:51:40.536Z,27.22
2022-07-26T01:54:07.566Z,27.21
2022-07-26T01:56:34.706Z,27.04
2022-07-26T01:59:01.788Z,26.94
2022-07-26T02:01:39.696Z,27.02
2022-07-26T02:04:08.970Z,27.20
2022-07-26T02:06:37.231Z,26.92
2022-07-26T02:09:05.231Z,26.79
2022-07-26T02:11:34.498Z,26.86
2022-07-26T02:14:03.309Z,26.84
2022-07-26T02:16:30.102Z,26.90
2022-07-26T02:18:57.161Z,26.81
2022-07-26T02:21:23.877Z,26.89
2022-07-26T02:23:50.604Z,26.72
2022-07-26T02:26:17.307Z,26.47
2022-07-26T02:28:44.002Z,26.52
2022-07-26T02:31:10.768Z,26.55
2022-07-26T02:33:38.621Z,26.49
2022-07-26T02:36:05.566Z,26.68
2022-07-26T02:38:32.343Z,26.75
2022-07-26T02:40:59.024Z,26.64
2022-07-26T02:43:26.965Z,26.37
2022-07-26T02:46:01.866Z,26.31
2022-07-26T02:48:30.924Z,25.85
2022-07-26T02:50:57.880Z,26.23
2022-07-26T02:53:24.689Z,26.13
2022-07-26T02:55:51.668Z,26.25
2022-07-26T02:58:21.369Z,26.57
2022-07-26T03:00:48.257Z,26.49
2022-07-26T03:03:15.267Z,26.37
2022-07-26T03:05:42.330Z,26.18
2022-07-26T03:08:09.618Z,26.35
2022-07-26T03:10:36.488Z,26.21
2022-07-26T03:13:03.634Z,26.15
2022-07-26T03:15:30.703Z,26.43
2022-07-26T03:17:57.454Z,26.29
2022-07-26T03:20:24.816Z,26.49
2022-07-26T03:22:51.733Z,26.54
2022-07-26T03:25:18.489Z,26.43
2022-07-26T03:27:45.327Z,25.88
2022-07-26T03:30:12.711Z,26.09
2022-07-26T03:32:39.482Z,25.99
2022-07-26T03:35:07.747Z,26.38
2022-07-26T03:37:45.943Z,26.42
2022-07-26T03:40:18.039Z,26.47
2022-07-26T03:42:46.116Z,26.42
2022-07-26T03:45:14.473Z,26.38
2022-07-26T03:47:42.173Z,26.34
2022-07-26T03:50:11.063Z,26.49
2022-07-26T03:52:38.226Z,26.38
2022-07-26T03:55:26.027Z,26.25
2022-07-26T03:57:53.538Z,26.42
2022-07-26T04:00:20.467Z,26.31
2022-07-26T04:02:47.327Z,26.41
2022-07-26T04:05:14.196Z,26.42
2022-07-26T04:07:52.573Z,26.31
2022-07-26T04:10:21.905Z,26.30
2022-07-26T04:12:49.923Z,26.44
2022-07-26T04:15:18.916Z,26.26
2022-07-26T04:17:48.256Z,26.34
2022-07-26T04:20:16.142Z,26.38
2022-07-26T04:22:42.972Z,26.42
2022-07-26T04:25:10.210Z,26.23
2022-07-26T04:27:38.051Z,26.45
2022-07-26T04:30:11.071Z,26.44
2022-07-26T04:32:42.056Z,26.62
2022-07-26T04:35:09.556Z,26.61
2022-07-26T04:37:43.845Z,26.64
2022-07-26T04:40:15.296Z,26.62
2022-07-26T04:42:43.155Z,26.50
2022-07-26T04:45:11.088Z,26.66
2022-07-26T04:47:37.948Z,26.75
2022-07-26T04:50:05.224Z,26.59
2022-07-26T04:52:32.682Z,26.57
2022-07-26T04:55:00.732Z,26.54
2022-07-26T04:57:27.551Z,26.57
2022-07-26T05:00:10.102Z,26.81
2022-07-26T05:02:42.502Z,26.58
2022-07-26T05:05:09.624Z,26.59
2022-07-26T05:07:43.525Z,26.72
2022-07-26T05:10:11.680Z,26.79
2022-07-26T05:12:38.587Z,26.78
2022-07-26T05:15:06.432Z,26.28
2022-07-26T05:17:41.632Z,26.31
2022-07-26T05:20:10.204Z,26.80
2022-07-26T05:22:37.887Z,27.08
2022-07-26T05:25:05.910Z,26.84
2022-07-26T05:27:32.797Z,26.61
2022-07-26T05:29:59.708Z,27.03
2022-07-26T05:32:28.243Z,27.26
2022-07-26T05:34:55.121Z,27.49
2022-07-26T05:37:21.901Z,27.59
2022-07-26T05:39:48.566Z,27.65
2022-07-26T05:42:15.345Z,27.54
2022-07-26T05:44:42.414Z,27.34
2022-07-26T05:47:10.041Z,27.19
2022-07-26T05:49:40.412Z,27.19
2022-07-26T05:52:08.786Z,27.73
2022-07-26T05:54:35.911Z,27.91
2022-07-26T05:57:03.225Z,27.55
2022-07-26T05:59:29.953Z,27.86
2022-07-26T06:01:56.921Z,27.87
2022-07-26T06:04:26.626Z,27.78
2022-07-26T06:06:55.249Z,27.84
2022-07-26T06:09:25.354Z,27.50
2022-07-26T06:11:52.756Z,28.03
2022-07-26T06:14:20.487Z,27.84
2022-07-26T06:16:47.727Z,28.29
2022-07-26T06:19:14.824Z,27.72
2022-07-26T06:21:42.771Z,28.21
2022-07-26T06:24:10.077Z,28.23
2022-07-26T06:26:37.332Z,28.08
2022-07-26T06:29:04.104Z,27.84
2022-07-26T06:31:30.906Z,28.29
2022-07-26T06:33:57.806Z,28.54
2022-07-26T06:36:29.965Z,28.57
2022-07-26T06:38:57.473Z,28.72
2022-07-26T06:41:24.229Z,28.91
2022-07-26T06:43:50.915Z,28.74
2022-07-26T06:46:19.357Z,28.85
2022-07-26T06:48:47.563Z,28.94
2022-07-26T06:51:19.493Z,28.95
2022-07-26T06:53:46.159Z,28.87
2022-07-26T06:56:14.934Z,29.08
2022-07-26T06:58:42.518Z,29.12
2022-07-26T07:01:09.450Z,28.99
2022-07-26T07:03:36.493Z,29.33
2022-07-26T07:06:03.307Z,29.22
2022-07-26T07:08:30.159Z,29.44
2022-07-26T07:10:57.833Z,29.28
2022-07-26T07:13:25.170Z,28.87
2022-07-26T07:15:52.130Z,29.31
2022-07-26T07:18:20.405Z,28.88
2022-07-26T07:20:47.569Z,29.38
2022-07-26T07:23:14.252Z,29.17
2022-07-26T07:25:40.934Z,29.49
2022-07-26T07:28:11.551Z,29.70
2022-07-26T07:30:38.253Z,29.53
2022-07-26T07:33:05.127Z,29.88
2022-07-26T07:35:32.871Z,29.29
2022-07-26T07:37:59.760Z,29.38
2022-07-26T07:40:30.309Z,29.55
2022-07-26T07:42:58.309Z,29.99
2022-07-26T07:45:25.005Z,30.21
2022-07-26T07:47:51.802Z,30.52
2022-07-26T07:50:18.830Z,30.09
2022-07-26T07:52:45.514Z,30.26
2022-07-26T07:55:36.754Z,30.65
2022-07-26T07:57:59.018Z,30.42
2022-07-26T08:00:33.036Z,30.50
2022-07-26T08:02:59.861Z,30.32
2022-07-26T08:05:26.658Z,30.50
2022-07-26T08:07:53.378Z,30.36
2022-07-26T08:10:21.293Z,30.64
2022-07-26T08:12:51.406Z,30.84
2022-07-26T08:15:19.521Z,31.06
2022-07-26T08:17:51.071Z,31.25
2022-07-26T08:20:21.052Z,31.30
2022-07-26T08:22:50.873Z,31.56
2022-07-26T08:25:18.797Z,31.53
2022-07-26T08:28:00.528Z,31.26
2022-07-26T08:30:30.582Z,31.63
2022-07-26T08:32:57.232Z,31.81
2022-07-26T08:35:24.297Z,31.93
2022-07-26T08:37:51.055Z,32.21
2022-07-26T08:40:18.150Z,32.30
2022-07-26T08:42:52.938Z,32.07
2022-07-26T08:45:24.369Z,32.53
2022-07-26T08:48:16.053Z,32.14
2022-07-26T08:50:39.710Z,32.47
2022-07-26T08:53:09.266Z,32.61
2022-07-26T08:56:04.202Z,32.88
2022-07-26T08:58:23.151Z,33.17
2022-07-26T09:01:06.707Z,33.23
2022-07-26T09:03:33.768Z,32.69
2022-07-26T09:06:15.877Z,32.72
2022-07-26T09:08:43.707Z,32.71
2022-07-26T09:11:30.043Z,32.89
2022-07-26T09:14:23.109Z,32.86
2022-07-26T09:16:58.715Z,32.99
2022-07-26T09:19:26.793Z,33.04
2022-07-26T09:21:55.657Z,32.95
2022-07-26T09:24:39.175Z,33.21
2022-07-26T09:27:07.682Z,33.21
2022-07-26T09:29:46.649Z,32.81
2022-07-26T09:32:25.050Z,32.88
2022-07-26T09:34:58.794Z,32.97
2022-07-26T09:37:40.316Z,32.86
2022-07-26T09:40:09.852Z,33.09
2022-07-26T09:42:36.855Z,33.56
2022-07-26T09:45:15.965Z,33.50
2022-07-26T09:47:42.798Z,33.70
2022-07-26T09:50:18.292Z,34.15
2022-07-26T09:53:12.200Z,33.91
2022-07-26T09:55:45.279Z,34.51
2022-07-26T09:58:17.485Z,34.65
2022-07-26T10:00:44.639Z,34.63
2022-07-26T10:03:12.293Z,34.63
2022-07-26T10:05:39.937Z,35.10
2022-07-26T10:08:07.861Z,35.24
2022-07-26T10:10:42.491Z,34.71
2022-07-26T10:13:10.283Z,35.37
2022-07-26T10:15:48.515Z,35.37
2022-07-26T10:18:42.962Z,35.34
2022-07-26T10:21:18.668Z,35.86
2022-07-26T10:23:50.618Z,35.97
2022-07-26T10:26:32.718Z,36.18
2022-07-26T10:29:26.926Z,35.91
2022-07-26T10:31:56.413Z,36.08
2022-07-26T10:34:40.081Z,35.88
2022-07-26T10:37:10.493Z,36.32
2022-07-26T10:39:38.967Z,35.64
2022-07-26T10:42:08.678Z,36.21
2022-07-26T10:44:39.282Z,36.21
2022-07-26T10:47:15.520Z,36.68
2022-07-26T10:49:58.340Z,36.61
2022-07-26T10:52:31.124Z,36.61
2022-07-26T10:54:58.154Z,36.77
2022-07-26T10:57:25.718Z,36.98
2022-07-26T10:59:56.067Z,37.01
2022-07-26T11:02:33.967Z,36.98
2022-07-26T11:05:01.088Z,36.74
2022-07-26T11:07:29.926Z,36.86
2022-07-26T11:10:00.817Z,37.55
2022-07-26T11:12:27.780Z,37.29
2022-07-26T11:14:54.450Z,37.02
2022-07-26T11:17:27.339Z,36.89
2022-07-26T11:19:54.983Z,36.74
2022-07-26T11:22:22.184Z,36.61
2022-07-26T11:24:49.008Z,37.19
2022-07-26T11:27:15.862Z,37.64
2022-07-26T11:29:42.600Z,37.73
2022-07-26T11:32:22.265Z,37.50
2022-07-26T11:35:00.025Z,37.34
2022-07-26T11:37:26.915Z,37.84
2022-07-26T11:39:54.438Z,37.87
2022-07-26T11:42:22.004Z,37.66
2022-07-26T11:44:49.896Z,36.56
2022-07-26T11:47:25.269Z,37.54
2022-07-26T11:52:40.691Z,37.14
2022-07-26T11:55:08.244Z,37.33
2022-07-26T11:57:34.991Z,37.44
2022-07-26T12:00:02.239Z,37.53
2022-07-26T12:02:38.409Z,37.53
2022-07-26T12:05:18.351Z,37.41
2022-07-26T12:07:59.973Z,37.00
2022-07-26T12:10:27.820Z,37.53
2022-07-26T12:13:07.601Z,38.00
2022-07-26T12:15:49.259Z,38.47
2022-07-26T12:18:27.106Z,38.28
2022-07-26T12:21:00.644Z,38.30
2022-07-26T12:23:45.810Z,38.33
2022-07-26T12:26:24.351Z,38.57
2022-07-26T12:28:51.286Z,38.47
2022-07-26T12:31:24.168Z,38.36
2022-07-26T12:33:51.170Z,38.12
2022-07-26T12:36:27.992Z,38.66
2022-07-26T12:39:00.880Z,38.65
2022-07-26T12:41:35.081Z,38.73
2022-07-26T12:44:01.906Z,38.97
2022-07-26T12:46:32.617Z,39.19
2022-07-26T12:49:00.648Z,38.80
2022-07-26T12:51:27.755Z,38.90
2022-07-26T12:53:54.711Z,39.27
2022-07-26T12:56:21.422Z,39.54
2022-07-26T12:58:48.173Z,39.29
2022-07-26T13:01:15.108Z,39.33
2022-07-26T13:03:41.977Z,39.02
2022-07-26T13:06:08.684Z,39.03
2022-07-26T13:08:35.540Z,38.59
2022-07-26T13:11:02.395Z,38.65
2022-07-26T13:13:29.644Z,39.01
2022-07-26T13:15:56.320Z,38.36
2022-07-26T13:18:23.016Z,38.59
2022-07-26T13:20:49.709Z,38.96
2022-07-26T13:23:21.372Z,38.82
2022-07-26T13:25:48.532Z,39.27
2022-07-26T13:28:17.300Z,39.26
2022-07-26T13:30:45.074Z,39.12
2022-07-26T13:33:12.493Z,39.20
2022-07-26T13:35:41.041Z,39.07
2022-07-26T13:38:08.838Z,39.81
2022-07-26T13:40:36.094Z,39.95
2022-07-26T13:43:03.062Z,40.18
2022-07-26T13:45:29.932Z,40.27
2022-07-26T13:47:59.098Z,40.29
2022-07-26T13:50:27.561Z,40.44
2022-07-26T13:52:56.809Z,40.43
2022-07-26T13:55:24.308Z,40.51
2022-07-26T13:57:56.758Z,40.80
2022-07-26T14:00:28.866Z,40.67
2022-07-26T14:02:57.474Z,40.88
2022-07-26T14:05:25.042Z,40.88
2022-07-26T14:07:51.977Z,40.38
2022-07-26T14:10:19.280Z,40.01
2022-07-26T14:12:46.008Z,39.83
2022-07-26T14:15:18.090Z,39.61
2022-07-26T14:17:48.099Z,39.83
2022-07-26T14:20:17.156Z,39.89
2022-07-26T14:22:44.612Z,40.21
2022-07-26T14:25:11.825Z,40.44
2022-07-26T14:27:39.223Z,40.00
2022-07-26T14:30:06.619Z,39.98
2022-07-26T14:32:33.469Z,40.02
2022-07-26T14:35:00.140Z,40.15
2022-07-26T14:37:42.728Z,40.15
2022-07-26T14:40:16.694Z,40.24
2022-07-26T14:42:44.885Z,40.32
2022-07-26T14:45:12.749Z,39.82
2022-07-26T14:47:39.654Z,40.40
2022-07-26T14:50:08.454Z,39.96
2022-07-26T14:52:40.577Z,40.29
2022-07-26T14:55:08.277Z,40.37
2022-07-26T14:57:39.531Z,40.38
2022-07-26T15:00:10.287Z,40.33
2022-07-26T15:02:42.539Z,39.89
2022-07-26T15:05:10.735Z,39.54
2022-07-26T15:07:39.126Z,40.01
2022-07-26T15:10:08.547Z,39.59
2022-07-26T15:12:37.505Z,39.98
2022-07-26T15:15:06.073Z,39.97
2022-07-26T15:17:33.287Z,39.95
2022-07-26T15:20:00.253Z,39.72
2022-07-26T15:22:27.117Z,39.67
2022-07-26T15:24:53.827Z,39.92
2022-07-26T15:27:21.327Z,39.83
2022-07-26T15:29:52.238Z,39.43
2022-07-26T15:32:23.842Z,39.08
2022-07-26T15:34:50.739Z,39.15
2022-07-26T15:37:18.872Z,38.36
2022-07-26T15:39:45.594Z,38.68
2022-07-26T15:42:12.379Z,38.58
2022-07-26T15:44:45.212Z,38.73
2022-07-26T15:47:15.333Z,38.69
2022-07-26T15:49:57.713Z,38.71
2022-07-26T15:52:24.442Z,39.20
2022-07-26T15:54:52.813Z,38.74
2022-07-26T15:57:19.559Z,38.76
2022-07-26T15:59:46.395Z,38.88
2022-07-26T16:02:13.822Z,39.06
2022-07-26T16:04:40.708Z,39.22
2022-07-26T16:07:07.511Z,39.19
2022-07-26T16:09:34.373Z,39.04
2022-07-26T16:12:05.792Z,38.54
2022-07-26T16:14:33.017Z,38.82
2022-07-26T16:17:00.045Z,38.59
2022-07-26T16:19:27.293Z,38.79
2022-07-26T16:21:54.546Z,38.86
2022-07-26T16:24:21.281Z,38.66
2022-07-26T16:26:48.107Z,38.58
2022-07-26T16:29:15.429Z,38.58
2022-07-26T16:31:42.870Z,38.44
2022-07-26T16:34:11.387Z,38.11
2022-07-26T16:36:38.351Z,37.93
2022-07-26T16:39:05.462Z,37.92
2022-07-26T16:41:32.371Z,37.84
2022-07-26T16:43:59.155Z,37.78
2022-07-26T16:46:27.095Z,37.86
2022-07-26T16:48:53.914Z,37.81
2022-07-26T16:51:20.705Z,37.56
2022-07-26T16:53:51.303Z,37.62
2022-07-26T16:56:18.655Z,37.72
2022-07-26T16:58:46.593Z,37.92
2022-07-26T17:01:13.480Z,37.87
2022-07-26T17:03:40.436Z,38.08
2022-07-26T17:06:07.774Z,38.26
2022-07-26T17:08:35.084Z,38.15
2022-07-26T17:11:02.890Z,38.13
2022-07-26T17:13:30.424Z,38.06
2022-07-26T17:15:57.377Z,37.93
2022-07-26T17:18:24.353Z,37.74
2022-07-26T17:20:51.070Z,37.38
2022-07-26T17:23:18.566Z,37.54
2022-07-26T17:25:45.762Z,37.75
2022-07-26T17:28:13.553Z,37.66
2022-07-26T17:30:41.351Z,37.63
2022-07-26T17:33:08.160Z,37.33
2022-07-26T17:35:34.921Z,37.24
2022-07-26T17:38:01.939Z,37.44
2022-07-26T17:40:31.649Z,37.35
2022-07-26T17:42:59.104Z,37.32
2022-07-26T17:45:26.285Z,36.87
2022-07-26T17:47:53.049Z,36.75
2022-07-26T17:50:36.096Z,36.60
2022-07-26T17:53:04.481Z,36.14
2022-07-26T17:55:31.513Z,36.05
2022-07-26T17:58:01.369Z,35.98
2022-07-26T18:00:28.986Z,36.05
2022-07-26T18:02:57.342Z,35.82
2022-07-26T18:05:30.189Z,35.78
2022-07-26T18:08:00.513Z,35.81
2022-07-26T18:10:28.200Z,35.73
2022-07-26T18:12:55.611Z,35.66
2022-07-26T18:15:22.418Z,35.85
2022-07-26T18:17:49.308Z,35.54
2022-07-26T18:20:16.183Z,35.65
2022-07-26T18:22:45.732Z,35.58
2022-07-26T18:25:17.312Z,34.80
2022-07-26T18:27:44.280Z,35.37
2022-07-26T18:30:11.293Z,35.54
2022-07-26T18:32:38.105Z,35.49
2022-07-26T18:35:06.040Z,35.37
2022-07-26T18:37:33.098Z,34.79
2022-07-26T18:40:00.055Z,34.93
2022-07-26T18:42:27.035Z,34.86
2022-07-26T18:44:56.013Z,34.58
2022-07-26T18:47:24.068Z,34.74
2022-07-26T18:49:56.561Z,34.54
2022-07-26T18:52:28.289Z,34.76
2022-07-26T18:55:02.953Z,34.54
2022-07-26T18:57:29.948Z,34.39
2022-07-26T18:59:56.732Z,34.38
2022-07-26T19:02:23.547Z,34.12
2022-07-26T19:04:50.380Z,33.88
2022-07-26T19:07:19.688Z,33.98
2022-07-26T19:09:46.490Z,33.27
2022-07-26T19:12:13.207Z,33.19
2022-07-26T19:14:39.982Z,33.03
2022-07-26T19:17:09.900Z,32.98
2022-07-26T19:19:38.068Z,32.79
2022-07-26T19:22:05.314Z,32.75
2022-07-26T19:24:41.395Z,32.95
2022-07-26T19:27:09.452Z,32.73
2022-07-26T19:29:37.685Z,32.27
2022-07-26T19:32:05.296Z,32.17
2022-07-26T19:34:32.177Z,32.57
2022-07-26T19:36:58.896Z,32.92
2022-07-26T19:39:26.021Z,32.91
2022-07-26T19:41:53.159Z,32.56
2022-07-26T19:44:20.257Z,32.42
2022-07-26T19:46:47.615Z,32.43
2022-07-26T19:49:16.973Z,32.33
2022-07-26T19:51:44.189Z,32.31
2022-07-26T19:54:11.714Z,32.20
2022-07-26T19:56:40.017Z,32.34
2022-07-26T19:59:06.736Z,32.38
2022-07-26T20:01:33.629Z,32.39
2022-07-26T20:04:02.315Z,32.54
2022-07-26T20:06:29.175Z,32.65
2022-07-26T20:08:55.927Z,32.67
2022-07-26T20:11:24.869Z,32.40
2022-07-26T20:13:51.724Z,32.45
2022-07-26T20:16:18.596Z,32.46
2022-07-26T20:18:45.377Z,32.37
2022-07-26T20:21:12.294Z,32.21
2022-07-26T20:23:39.053Z,32.08
2022-07-26T20:26:06.091Z,31.69
2022-07-26T20:28:33.016Z,31.23
2022-07-26T20:31:00.168Z,31.51
2022-07-26T20:33:27.144Z,31.73
2022-07-26T20:35:55.203Z,31.98
2022-07-26T20:38:22.591Z,32.08
2022-07-26T20:40:49.738Z,32.15
2022-07-26T20:43:17.286Z,32.12
2022-07-26T20:45:44.577Z,32.15
2022-07-26T20:48:11.389Z,32.07
2022-07-26T20:50:38.399Z,32.05
2022-07-26T20:53:05.349Z,31.92
2022-07-26T20:55:32.204Z,31.65
2022-07-26T20:57:59.173Z,31.77
2022-07-26T21:00:26.527Z,31.70
2022-07-26T21:02:58.015Z,31.44
2022-07-26T21:05:29.714Z,31.42
2022-07-26T21:07:59.757Z,31.54
2022-07-26T21:10:29.076Z,31.63
2022-07-26T21:12:57.519Z,31.06
2022-07-26T21:15:24.398Z,31.11
2022-07-26T21:17:52.527Z,31.04
2022-07-26T21:20:19.991Z,31.20
2022-07-26T21:22:46.811Z,31.27
2022-07-26T21:25:13.793Z,30.93
2022-07-26T21:27:40.517Z,31.05
2022-07-26T21:30:08.274Z,31.05
2022-07-26T21:32:35.138Z,30.86
2022-07-26T21:35:02.073Z,30.41
2022-07-26T21:37:28.882Z,29.88
2022-07-26T21:39:55.641Z,30.55
2022-07-26T21:42:27.542Z,30.55
2022-07-26T21:44:54.217Z,30.69
2022-07-26T21:47:21.002Z,30.79
2022-07-26T21:49:47.707Z,30.59
2022-07-26T21:52:14.546Z,30.34
2022-07-26T21:54:41.298Z,30.40
2022-07-26T21:57:08.115Z,30.40
2022-07-26T21:59:34.977Z,30.56
2022-07-26T22:02:01.791Z,30.70
2022-07-26T22:04:29.030Z,30.50
2022-07-26T22:06:55.734Z,30.36
2022-07-26T22:09:22.444Z,30.59
2022-07-26T22:11:49.328Z,30.61
2022-07-26T22:14:17.460Z,30.62
2022-07-26T22:16:44.605Z,30.59
2022-07-26T22:19:11.767Z,30.51
2022-07-26T22:21:39.763Z,30.43
2022-07-26T22:24:06.864Z,30.29
2022-07-26T22:26:33.699Z,30.36
2022-07-26T22:29:00.430Z,30.21
2022-07-26T22:31:27.244Z,30.13
2022-07-26T22:33:54.099Z,30.08
2022-07-26T22:36:21.008Z,30.07
2022-07-26T22:38:47.928Z,29.60
2022-07-26T22:41:14.788Z,29.84
2022-07-26T22:43:41.958Z,29.66
2022-07-26T22:46:08.886Z,29.83
2022-07-26T22:48:38.418Z,29.72
2022-07-26T22:51:05.747Z,29.89
2022-07-26T22:53:32.511Z,29.84
2022-07-26T22:55:59.321Z,29.91
2022-07-26T22:58:26.126Z,29.96
2022-07-26T23:00:54.156Z,29.82
2022-07-26T23:03:21.724Z,29.88
2022-07-26T23:05:49.947Z,29.83
2022-07-26T23:08:45.817Z,29.79
2022-07-26T23:11:05.247Z,29.88
2022-07-26T23:13:32.169Z,29.81
2022-07-26T23:16:01.242Z,29.93
2022-07-26T23:18:30.011Z,29.88
2022-07-26T23:20:57.275Z,29.90
2022-07-26T23:23:29.705Z,29.83
2022-07-26T23:25:57.597Z,29.75
2022-07-26T23:28:24.899Z,29.74
2022-07-26T23:31:06.591Z,29.62
2022-07-26T23:33:52.058Z,29.98
2022-07-26T23:36:20.100Z,30.03
2022-07-26T23:38:46.784Z,29.92
2022-07-26T23:41:13.541Z,30.03
2022-07-26T23:43:40.244Z,29.82
2022-07-26T23:46:07.039Z,29.68
2022-07-26T23:48:33.894Z,29.96
2022-07-26T23:51:00.651Z,29.33
2022-07-26T23:53:27.482Z,29.27
2022-07-26T23:55:54.705Z,29.17
2022-07-26T23:58:21.840Z,29.12
